sensor_id;sensor_type;location;lat;lon;timestamp;temperature;humidity
69387;SHT31;56575;48.942;8.404;2023-05-01T00:00:46;11.92;71.93
69387;SHT31;56575;48.942;8.404;2023-05-01T00:03:12;11.89;71.86
69387;SHT31;56575;48.942;8.404;2023-05-01T00:05:38;11.87;72.11
69387;SHT31;56575;48.942;8.404;2023-05-01T00:08:03;11.89;72.34
69387;SHT31;56575;48.942;8.404;2023-05-01T00:10:29;11.87;71.94
69387;SHT31;56575;48.942;8.404;2023-05-01T00:12:55;11.89;71.95
69387;SHT31;56575;48.942;8.404;2023-05-01T00:15:20;11.89;71.98
69387;SHT31;56575;48.942;8.404;2023-05-01T00:17:45;11.89;71.94
69387;SHT31;56575;48.942;8.404;2023-05-01T00:20:11;11.83;71.46
69387;SHT31;56575;48.942;8.404;2023-05-01T00:22:36;11.79;71.88
69387;SHT31;56575;48.942;8.404;2023-05-01T00:25:02;11.72;72.07
69387;SHT31;56575;48.942;8.404;2023-05-01T00:27:27;11.75;72.01
69387;SHT31;56575;48.942;8.404;2023-05-01T00:29:53;11.69;72.22
69387;SHT31;56575;48.942;8.404;2023-05-01T00:32:18;11.68;72.37
69387;SHT31;56575;48.942;8.404;2023-05-01T00:34:43;11.65;72.46
69387;SHT31;56575;48.942;8.404;2023-05-01T00:37:11;11.65;72.58
69387;SHT31;56575;48.942;8.404;2023-05-01T00:39:37;11.67;72.62
69387;SHT31;56575;48.942;8.404;2023-05-01T00:42:03;11.68;72.53
69387;SHT31;56575;48.942;8.404;2023-05-01T00:44:28;11.74;72.43
69387;SHT31;56575;48.942;8.404;2023-05-01T00:46:53;11.76;72.14
69387;SHT31;56575;48.942;8.404;2023-05-01T00:49:20;11.76;72.28
69387;SHT31;56575;48.942;8.404;2023-05-01T00:51:48;11.76;71.92
69387;SHT31;56575;48.942;8.404;2023-05-01T00:54:17;11.79;72.21
69387;SHT31;56575;48.942;8.404;2023-05-01T00:56:45;11.78;72.09
69387;SHT31;56575;48.942;8.404;2023-05-01T00:59:11;11.83;72.11
69387;SHT31;56575;48.942;8.404;2023-05-01T01:01:37;11.81;71.81
69387;SHT31;56575;48.942;8.404;2023-05-01T01:04:02;11.75;72.33
69387;SHT31;56575;48.942;8.404;2023-05-01T01:06:35;11.79;72.36
69387;SHT31;56575;48.942;8.404;2023-05-01T01:12:07;11.79;72.65
69387;SHT31;56575;48.942;8.404;2023-05-01T01:14:31;11.79;72.42
69387;SHT31;56575;48.942;8.404;2023-05-01T01:17:06;11.83;72.87
69387;SHT31;56575;48.942;8.404;2023-05-01T01:20:03;11.89;71.94
69387;SHT31;56575;48.942;8.404;2023-05-01T01:22:35;11.96;71.67
69387;SHT31;56575;48.942;8.404;2023-05-01T01:30:56;12.14;71.61
69387;SHT31;56575;48.942;8.404;2023-05-01T01:36:19;12.23;71.33
69387;SHT31;56575;48.942;8.404;2023-05-01T01:39:02;12.29;71.35
69387;SHT31;56575;48.942;8.404;2023-05-01T01:41:33;12.30;70.26
69387;SHT31;56575;48.942;8.404;2023-05-01T01:44:07;12.24;70.10
69387;SHT31;56575;48.942;8.404;2023-05-01T01:46:36;12.19;70.70
69387;SHT31;56575;48.942;8.404;2023-05-01T01:49:05;12.13;70.95
69387;SHT31;56575;48.942;8.404;2023-05-01T01:51:33;12.09;71.65
69387;SHT31;56575;48.942;8.404;2023-05-01T01:54:00;12.06;71.65
69387;SHT31;56575;48.942;8.404;2023-05-01T01:56:28;12.03;71.67
69387;SHT31;56575;48.942;8.404;2023-05-01T01:58:55;11.97;72.14
69387;SHT31;56575;48.942;8.404;2023-05-01T02:01:22;11.99;71.55
69387;SHT31;56575;48.942;8.404;2023-05-01T02:03:49;11.97;71.80
69387;SHT31;56575;48.942;8.404;2023-05-01T02:06:16;11.89;71.95
69387;SHT31;56575;48.942;8.404;2023-05-01T02:08:43;11.87;72.02
69387;SHT31;56575;48.942;8.404;2023-05-01T02:11:12;11.86;72.43
69387;SHT31;56575;48.942;8.404;2023-05-01T02:13:39;11.87;72.69
69387;SHT31;56575;48.942;8.404;2023-05-01T02:16:06;11.85;72.50
69387;SHT31;56575;48.942;8.404;2023-05-01T02:18:32;11.85;72.71
69387;SHT31;56575;48.942;8.404;2023-05-01T02:20:59;11.86;72.47
69387;SHT31;56575;48.942;8.404;2023-05-01T02:23:28;11.89;72.88
69387;SHT31;56575;48.942;8.404;2023-05-01T02:25:56;11.93;73.23
69387;SHT31;56575;48.942;8.404;2023-05-01T02:28:25;11.92;72.48
69387;SHT31;56575;48.942;8.404;2023-05-01T02:30:51;11.96;72.64
69387;SHT31;56575;48.942;8.404;2023-05-01T02:33:17;11.97;72.77
69387;SHT31;56575;48.942;8.404;2023-05-01T02:35:44;11.99;72.52
69387;SHT31;56575;48.942;8.404;2023-05-01T02:38:11;12.02;72.63
69387;SHT31;56575;48.942;8.404;2023-05-01T02:40:38;12.00;72.27
69387;SHT31;56575;48.942;8.404;2023-05-01T02:43:08;11.97;72.73
69387;SHT31;56575;48.942;8.404;2023-05-01T02:45:37;12.00;72.59
69387;SHT31;56575;48.942;8.404;2023-05-01T02:48:04;11.97;72.85
69387;SHT31;56575;48.942;8.404;2023-05-01T02:50:31;11.93;72.58
69387;SHT31;56575;48.942;8.404;2023-05-01T02:52:57;11.92;73.13
69387;SHT31;56575;48.942;8.404;2023-05-01T02:55:24;11.90;72.90
69387;SHT31;56575;48.942;8.404;2023-05-01T02:57:50;11.86;72.71
69387;SHT31;56575;48.942;8.404;2023-05-01T03:00:16;11.85;72.48
69387;SHT31;56575;48.942;8.404;2023-05-01T03:02:42;11.89;72.72
69387;SHT31;56575;48.942;8.404;2023-05-01T03:05:07;11.83;72.68
69387;SHT31;56575;48.942;8.404;2023-05-01T03:07:33;11.81;72.42
69387;SHT31;56575;48.942;8.404;2023-05-01T03:10:03;11.78;72.77
69387;SHT31;56575;48.942;8.404;2023-05-01T03:12:31;11.76;72.91
69387;SHT31;56575;48.942;8.404;2023-05-01T03:14:57;11.74;72.90
69387;SHT31;56575;48.942;8.404;2023-05-01T03:17:22;11.69;72.83
69387;SHT31;56575;48.942;8.404;2023-05-01T03:19:48;11.65;72.83
69387;SHT31;56575;48.942;8.404;2023-05-01T03:22:14;11.65;72.80
69387;SHT31;56575;48.942;8.404;2023-05-01T03:24:39;11.61;73.35
69387;SHT31;56575;48.942;8.404;2023-05-01T03:27:04;11.62;73.61
69387;SHT31;56575;48.942;8.404;2023-05-01T03:29:32;11.62;73.46
69387;SHT31;56575;48.942;8.404;2023-05-01T03:31:58;11.69;73.53
69387;SHT31;56575;48.942;8.404;2023-05-01T03:34:23;11.68;73.30
69387;SHT31;56575;48.942;8.404;2023-05-01T03:36:49;11.72;72.79
69387;SHT31;56575;48.942;8.404;2023-05-01T03:39:14;11.75;73.30
69387;SHT31;56575;48.942;8.404;2023-05-01T03:41:40;11.76;73.11
69387;SHT31;56575;48.942;8.404;2023-05-01T03:44:05;11.78;72.85
69387;SHT31;56575;48.942;8.404;2023-05-01T03:46:30;11.78;72.87
69387;SHT31;56575;48.942;8.404;2023-05-01T03:48:55;11.76;72.71
69387;SHT31;56575;48.942;8.404;2023-05-01T03:51:21;11.79;73.27
69387;SHT31;56575;48.942;8.404;2023-05-01T03:53:46;11.81;73.63
69387;SHT31;56575;48.942;8.404;2023-05-01T03:56:12;11.78;73.71
69387;SHT31;56575;48.942;8.404;2023-05-01T03:58:37;11.79;73.77
69387;SHT31;56575;48.942;8.404;2023-05-01T04:01:02;11.78;73.57
69387;SHT31;56575;48.942;8.404;2023-05-01T04:03:28;11.78;73.71
69387;SHT31;56575;48.942;8.404;2023-05-01T04:05:54;11.78;74.23
69387;SHT31;56575;48.942;8.404;2023-05-01T04:08:19;11.72;74.23
69387;SHT31;56575;48.942;8.404;2023-05-01T04:10:44;11.71;74.08
69387;SHT31;56575;48.942;8.404;2023-05-01T04:13:10;11.69;74.26
69387;SHT31;56575;48.942;8.404;2023-05-01T04:15:36;11.68;74.29
69387;SHT31;56575;48.942;8.404;2023-05-01T04:18:03;11.65;73.57
69387;SHT31;56575;48.942;8.404;2023-05-01T04:20:28;11.65;73.62
69387;SHT31;56575;48.942;8.404;2023-05-01T04:22:54;11.58;73.67
69387;SHT31;56575;48.942;8.404;2023-05-01T04:25:19;11.55;73.88
69387;SHT31;56575;48.942;8.404;2023-05-01T04:27:44;11.55;73.95
69387;SHT31;56575;48.942;8.404;2023-05-01T04:30:10;11.59;74.72
69387;SHT31;56575;48.942;8.404;2023-05-01T04:32:35;11.55;74.55
69387;SHT31;56575;48.942;8.404;2023-05-01T04:35:01;11.59;74.55
69387;SHT31;56575;48.942;8.404;2023-05-01T04:37:26;11.61;74.44
69387;SHT31;56575;48.942;8.404;2023-05-01T04:39:52;11.62;74.57
69387;SHT31;56575;48.942;8.404;2023-05-01T04:42:17;11.65;74.85
69387;SHT31;56575;48.942;8.404;2023-05-01T04:44:44;11.71;74.31
69387;SHT31;56575;48.942;8.404;2023-05-01T04:47:09;11.75;74.32
69387;SHT31;56575;48.942;8.404;2023-05-01T04:49:35;11.79;73.93
69387;SHT31;56575;48.942;8.404;2023-05-01T04:52:00;11.79;73.82
69387;SHT31;56575;48.942;8.404;2023-05-01T04:54:26;11.86;73.32
69387;SHT31;56575;48.942;8.404;2023-05-01T04:56:52;11.90;73.80
69387;SHT31;56575;48.942;8.404;2023-05-01T04:59:17;11.92;73.43
69387;SHT31;56575;48.942;8.404;2023-05-01T05:01:42;11.95;73.24
69387;SHT31;56575;48.942;8.404;2023-05-01T05:04:08;11.99;73.11
69387;SHT31;56575;48.942;8.404;2023-05-01T05:06:34;11.95;72.93
69387;SHT31;56575;48.942;8.404;2023-05-01T05:08:59;12.02;72.90
69387;SHT31;56575;48.942;8.404;2023-05-01T05:11:25;12.07;73.28
69387;SHT31;56575;48.942;8.404;2023-05-01T05:13:51;12.09;72.64
69387;SHT31;56575;48.942;8.404;2023-05-01T05:16:16;12.14;72.74
69387;SHT31;56575;48.942;8.404;2023-05-01T05:18:41;12.16;72.46
69387;SHT31;56575;48.942;8.404;2023-05-01T05:21:07;12.24;71.98
69387;SHT31;56575;48.942;8.404;2023-05-01T05:23:33;12.31;72.05
69387;SHT31;56575;48.942;8.404;2023-05-01T05:25:59;12.40;72.74
69387;SHT31;56575;48.942;8.404;2023-05-01T05:28:25;12.47;71.90
69387;SHT31;56575;48.942;8.404;2023-05-01T05:30:51;12.61;71.19
69387;SHT31;56575;48.942;8.404;2023-05-01T05:33:16;12.72;70.66
69387;SHT31;56575;48.942;8.404;2023-05-01T05:35:42;12.81;71.02
69387;SHT31;56575;48.942;8.404;2023-05-01T05:38:07;12.89;70.52
69387;SHT31;56575;48.942;8.404;2023-05-01T05:40:32;12.96;69.68
69387;SHT31;56575;48.942;8.404;2023-05-01T05:42:58;13.07;69.14
69387;SHT31;56575;48.942;8.404;2023-05-01T05:45:24;13.13;69.08
69387;SHT31;56575;48.942;8.404;2023-05-01T05:47:49;13.16;69.25
69387;SHT31;56575;48.942;8.404;2023-05-01T05:50:14;13.10;69.26
69387;SHT31;56575;48.942;8.404;2023-05-01T05:52:40;12.99;69.12
69387;SHT31;56575;48.942;8.404;2023-05-01T05:55:06;12.97;69.17
69387;SHT31;56575;48.942;8.404;2023-05-01T05:57:31;12.99;69.22
69387;SHT31;56575;48.942;8.404;2023-05-01T05:59:58;13.03;69.91
69387;SHT31;56575;48.942;8.404;2023-05-01T06:02:23;13.10;70.52
69387;SHT31;56575;48.942;8.404;2023-05-01T06:04:49;13.12;70.27
69387;SHT31;56575;48.942;8.404;2023-05-01T06:07:14;13.14;69.41
69387;SHT31;56575;48.942;8.404;2023-05-01T06:09:40;13.17;69.41
69387;SHT31;56575;48.942;8.404;2023-05-01T06:12:06;13.14;69.21
69387;SHT31;56575;48.942;8.404;2023-05-01T06:14:31;13.14;69.41
69387;SHT31;56575;48.942;8.404;2023-05-01T06:16:57;13.16;69.65
69387;SHT31;56575;48.942;8.404;2023-05-01T06:19:22;13.20;69.74
69387;SHT31;56575;48.942;8.404;2023-05-01T06:21:48;13.09;70.85
69387;SHT31;56575;48.942;8.404;2023-05-01T06:24:13;12.95;71.57
69387;SHT31;56575;48.942;8.404;2023-05-01T06:26:40;12.82;72.48
69387;SHT31;56575;48.942;8.404;2023-05-01T06:29:05;12.68;73.11
69387;SHT31;56575;48.942;8.404;2023-05-01T06:31:31;12.71;73.03
69387;SHT31;56575;48.942;8.404;2023-05-01T06:33:56;12.62;73.42
69387;SHT31;56575;48.942;8.404;2023-05-01T06:36:21;12.57;73.50
69387;SHT31;56575;48.942;8.404;2023-05-01T06:38:47;12.57;73.09
69387;SHT31;56575;48.942;8.404;2023-05-01T06:41:14;12.69;73.32
69387;SHT31;56575;48.942;8.404;2023-05-01T06:43:40;12.86;73.05
69387;SHT31;56575;48.942;8.404;2023-05-01T06:46:05;13.02;72.30
69387;SHT31;56575;48.942;8.404;2023-05-01T06:48:31;12.96;72.57
69387;SHT31;56575;48.942;8.404;2023-05-01T06:50:56;13.07;71.92
69387;SHT31;56575;48.942;8.404;2023-05-01T06:53:22;13.09;72.10
69387;SHT31;56575;48.942;8.404;2023-05-01T06:55:47;13.09;71.59
69387;SHT31;56575;48.942;8.404;2023-05-01T06:58:12;13.16;71.29
69387;SHT31;56575;48.942;8.404;2023-05-01T07:00:38;13.19;71.34
69387;SHT31;56575;48.942;8.404;2023-05-01T07:03:03;13.30;70.52
69387;SHT31;56575;48.942;8.404;2023-05-01T07:05:29;13.27;69.27
69387;SHT31;56575;48.942;8.404;2023-05-01T07:07:54;13.31;69.13
69387;SHT31;56575;48.942;8.404;2023-05-01T07:10:20;13.30;69.67
69387;SHT31;56575;48.942;8.404;2023-05-01T07:12:45;13.37;69.83
69387;SHT31;56575;48.942;8.404;2023-05-01T07:15:11;13.40;69.56
69387;SHT31;56575;48.942;8.404;2023-05-01T07:17:38;13.44;69.68
69387;SHT31;56575;48.942;8.404;2023-05-01T07:20:04;13.30;69.46
69387;SHT31;56575;48.942;8.404;2023-05-01T07:22:29;13.38;69.28
69387;SHT31;56575;48.942;8.404;2023-05-01T07:24:55;13.33;69.74
69387;SHT31;56575;48.942;8.404;2023-05-01T07:27:20;13.41;69.62
69387;SHT31;56575;48.942;8.404;2023-05-01T07:29:46;13.40;69.57
69387;SHT31;56575;48.942;8.404;2023-05-01T07:32:11;13.48;70.00
69387;SHT31;56575;48.942;8.404;2023-05-01T07:34:36;13.59;69.98
69387;SHT31;56575;48.942;8.404;2023-05-01T07:37:02;13.58;69.48
69387;SHT31;56575;48.942;8.404;2023-05-01T07:39:29;13.59;70.27
69387;SHT31;56575;48.942;8.404;2023-05-01T07:41:56;13.61;69.81
69387;SHT31;56575;48.942;8.404;2023-05-01T07:44:22;13.65;70.39
69387;SHT31;56575;48.942;8.404;2023-05-01T07:46:47;13.72;69.97
69387;SHT31;56575;48.942;8.404;2023-05-01T07:49:13;13.61;70.03
69387;SHT31;56575;48.942;8.404;2023-05-01T07:51:38;13.50;70.95
69387;SHT31;56575;48.942;8.404;2023-05-01T07:54:03;13.55;70.96
69387;SHT31;56575;48.942;8.404;2023-05-01T07:56:29;13.68;70.94
69387;SHT31;56575;48.942;8.404;2023-05-01T07:58:55;13.82;71.27
69387;SHT31;56575;48.942;8.404;2023-05-01T08:01:21;13.96;70.43
69387;SHT31;56575;48.942;8.404;2023-05-01T08:03:47;13.95;70.22
69387;SHT31;56575;48.942;8.404;2023-05-01T08:06:12;14.10;69.45
69387;SHT31;56575;48.942;8.404;2023-05-01T08:08:38;14.23;69.04
69387;SHT31;56575;48.942;8.404;2023-05-01T08:11:03;14.30;68.33
69387;SHT31;56575;48.942;8.404;2023-05-01T08:13:29;14.31;68.40
69387;SHT31;56575;48.942;8.404;2023-05-01T08:15:55;14.34;68.22
69387;SHT31;56575;48.942;8.404;2023-05-01T08:18:23;14.26;68.01
69387;SHT31;56575;48.942;8.404;2023-05-01T08:20:48;14.29;68.31
69387;SHT31;56575;48.942;8.404;2023-05-01T08:23:15;14.13;68.56
69387;SHT31;56575;48.942;8.404;2023-05-01T08:25:41;14.24;68.78
69387;SHT31;56575;48.942;8.404;2023-05-01T08:28:06;14.37;68.88
69387;SHT31;56575;48.942;8.404;2023-05-01T08:30:32;14.23;68.86
69387;SHT31;56575;48.942;8.404;2023-05-01T08:32:57;14.16;69.99
69387;SHT31;56575;48.942;8.404;2023-05-01T08:35:23;14.23;70.09
69387;SHT31;56575;48.942;8.404;2023-05-01T08:37:48;14.29;69.99
69387;SHT31;56575;48.942;8.404;2023-05-01T08:40:14;14.41;70.01
69387;SHT31;56575;48.942;8.404;2023-05-01T08:42:39;14.50;69.84
69387;SHT31;56575;48.942;8.404;2023-05-01T08:45:08;14.58;69.90
69387;SHT31;56575;48.942;8.404;2023-05-01T08:47:36;14.38;70.44
69387;SHT31;56575;48.942;8.404;2023-05-01T08:50:03;14.51;70.24
69387;SHT31;56575;48.942;8.404;2023-05-01T08:52:34;14.56;70.43
69387;SHT31;56575;48.942;8.404;2023-05-01T08:55:01;14.44;69.91
69387;SHT31;56575;48.942;8.404;2023-05-01T08:57:28;14.40;70.49
69387;SHT31;56575;48.942;8.404;2023-05-01T08:59:55;14.71;70.77
69387;SHT31;56575;48.942;8.404;2023-05-01T09:02:23;15.06;69.02
69387;SHT31;56575;48.942;8.404;2023-05-01T09:04:49;15.30;68.66
69387;SHT31;56575;48.942;8.404;2023-05-01T09:07:15;15.61;67.72
69387;SHT31;56575;48.942;8.404;2023-05-01T09:09:41;15.74;67.32
69387;SHT31;56575;48.942;8.404;2023-05-01T09:12:17;16.02;66.46
69387;SHT31;56575;48.942;8.404;2023-05-01T09:14:45;15.93;66.31
69387;SHT31;56575;48.942;8.404;2023-05-01T09:17:11;16.03;66.47
69387;SHT31;56575;48.942;8.404;2023-05-01T09:19:37;16.03;66.81
69387;SHT31;56575;48.942;8.404;2023-05-01T09:22:02;15.95;67.07
69387;SHT31;56575;48.942;8.404;2023-05-01T09:24:28;15.77;67.61
69387;SHT31;56575;48.942;8.404;2023-05-01T09:26:54;15.79;67.90
69387;SHT31;56575;48.942;8.404;2023-05-01T09:29:41;15.96;67.30
69387;SHT31;56575;48.942;8.404;2023-05-01T09:34:39;16.13;67.44
69387;SHT31;56575;48.942;8.404;2023-05-01T09:37:05;15.72;68.17
69387;SHT31;56575;48.942;8.404;2023-05-01T09:39:30;15.84;67.93
69387;SHT31;56575;48.942;8.404;2023-05-01T09:41:56;16.02;68.03
69387;SHT31;56575;48.942;8.404;2023-05-01T09:44:21;16.09;66.97
69387;SHT31;56575;48.942;8.404;2023-05-01T09:46:47;16.01;67.03
69387;SHT31;56575;48.942;8.404;2023-05-01T09:49:14;15.85;67.91
69387;SHT31;56575;48.942;8.404;2023-05-01T09:51:40;15.75;68.09
69387;SHT31;56575;48.942;8.404;2023-05-01T09:54:17;15.69;67.28
69387;SHT31;56575;48.942;8.404;2023-05-01T09:56:47;15.69;67.61
69387;SHT31;56575;48.942;8.404;2023-05-01T09:59:19;15.72;66.66
69387;SHT31;56575;48.942;8.404;2023-05-01T10:01:46;15.64;68.02
69387;SHT31;56575;48.942;8.404;2023-05-01T10:04:12;15.91;68.01
69387;SHT31;56575;48.942;8.404;2023-05-01T10:06:39;16.12;66.71
69387;SHT31;56575;48.942;8.404;2023-05-01T10:09:05;16.13;66.48
69387;SHT31;56575;48.942;8.404;2023-05-01T10:11:48;16.16;66.00
69387;SHT31;56575;48.942;8.404;2023-05-01T10:14:16;16.13;66.07
69387;SHT31;56575;48.942;8.404;2023-05-01T10:16:41;16.36;65.53
69387;SHT31;56575;48.942;8.404;2023-05-01T10:19:08;16.56;65.21
69387;SHT31;56575;48.942;8.404;2023-05-01T10:21:34;17.12;64.26
69387;SHT31;56575;48.942;8.404;2023-05-01T10:24:01;17.48;62.73
69387;SHT31;56575;48.942;8.404;2023-05-01T10:26:32;17.85;61.93
69387;SHT31;56575;48.942;8.404;2023-05-01T10:28:59;17.81;61.46
69387;SHT31;56575;48.942;8.404;2023-05-01T10:31:26;17.84;61.37
69387;SHT31;56575;48.942;8.404;2023-05-01T10:33:53;17.93;60.51
69387;SHT31;56575;48.942;8.404;2023-05-01T10:36:24;17.30;60.93
69387;SHT31;56575;48.942;8.404;2023-05-01T10:38:49;17.55;61.70
69387;SHT31;56575;48.942;8.404;2023-05-01T10:41:15;17.60;61.53
69387;SHT31;56575;48.942;8.404;2023-05-01T10:43:41;17.74;61.59
69387;SHT31;56575;48.942;8.404;2023-05-01T10:51:14;18.58;59.65
69387;SHT31;56575;48.942;8.404;2023-05-01T10:53:42;19.06;58.24
69387;SHT31;56575;48.942;8.404;2023-05-01T11:03:52;18.17;59.42
69387;SHT31;56575;48.942;8.404;2023-05-01T11:06:18;18.14;60.53
69387;SHT31;56575;48.942;8.404;2023-05-01T11:08:43;18.19;61.25
69387;SHT31;56575;48.942;8.404;2023-05-01T11:14:03;18.06;59.81
69387;SHT31;56575;48.942;8.404;2023-05-01T11:21:39;18.19;60.14
69387;SHT31;56575;48.942;8.404;2023-05-01T11:24:05;18.33;60.15
69387;SHT31;56575;48.942;8.404;2023-05-01T11:26:31;18.72;59.10
69387;SHT31;56575;48.942;8.404;2023-05-01T11:28:58;19.54;56.82
69387;SHT31;56575;48.942;8.404;2023-05-01T11:31:27;20.12;56.14
69387;SHT31;56575;48.942;8.404;2023-05-01T11:33:59;20.20;54.44
69387;SHT31;56575;48.942;8.404;2023-05-01T11:36:26;20.22;54.26
69387;SHT31;56575;48.942;8.404;2023-05-01T11:38:56;20.11;54.35
69387;SHT31;56575;48.942;8.404;2023-05-01T11:41:23;19.93;54.79
69387;SHT31;56575;48.942;8.404;2023-05-01T11:43:49;19.70;55.83
69387;SHT31;56575;48.942;8.404;2023-05-01T11:46:28;20.34;55.09
69387;SHT31;56575;48.942;8.404;2023-05-01T11:48:59;20.48;53.93
69387;SHT31;56575;48.942;8.404;2023-05-01T11:51:28;20.85;53.87
69387;SHT31;56575;48.942;8.404;2023-05-01T11:54:01;20.95;52.20
69387;SHT31;56575;48.942;8.404;2023-05-01T11:56:28;22.25;50.53
69387;SHT31;56575;48.942;8.404;2023-05-01T11:58:54;21.82;50.07
69387;SHT31;56575;48.942;8.404;2023-05-01T12:01:31;22.01;49.49
69387;SHT31;56575;48.942;8.404;2023-05-01T12:03:57;21.01;50.98
69387;SHT31;56575;48.942;8.404;2023-05-01T12:06:36;20.58;52.07
69387;SHT31;56575;48.942;8.404;2023-05-01T12:09:09;20.22;52.76
69387;SHT31;56575;48.942;8.404;2023-05-01T12:11:35;20.19;53.00
69387;SHT31;56575;48.942;8.404;2023-05-01T12:14:01;19.68;53.71
69387;SHT31;56575;48.942;8.404;2023-05-01T12:16:27;19.51;54.68
69387;SHT31;56575;48.942;8.404;2023-05-01T12:18:54;19.19;55.60
69387;SHT31;56575;48.942;8.404;2023-05-01T12:21:19;19.30;55.73
69387;SHT31;56575;48.942;8.404;2023-05-01T12:23:46;19.57;56.16
69387;SHT31;56575;48.942;8.404;2023-05-01T12:26:19;19.53;55.32
69387;SHT31;56575;48.942;8.404;2023-05-01T12:28:58;19.46;55.78
69387;SHT31;56575;48.942;8.404;2023-05-01T12:31:25;19.51;55.16
69387;SHT31;56575;48.942;8.404;2023-05-01T12:34:04;19.22;56.13
69387;SHT31;56575;48.942;8.404;2023-05-01T12:36:32;19.12;56.43
69387;SHT31;56575;48.942;8.404;2023-05-01T12:39:00;18.75;58.26
69387;SHT31;56575;48.942;8.404;2023-05-01T12:41:41;18.54;59.69
69387;SHT31;56575;48.942;8.404;2023-05-01T12:44:26;18.40;59.02
69387;SHT31;56575;48.942;8.404;2023-05-01T12:47:03;18.37;59.58
69387;SHT31;56575;48.942;8.404;2023-05-01T12:49:29;18.34;60.00
69387;SHT31;56575;48.942;8.404;2023-05-01T12:51:57;18.32;60.30
69387;SHT31;56575;48.942;8.404;2023-05-01T12:54:26;18.25;60.91
69387;SHT31;56575;48.942;8.404;2023-05-01T12:56:52;18.33;61.36
69387;SHT31;56575;48.942;8.404;2023-05-01T12:59:25;18.41;60.79
69387;SHT31;56575;48.942;8.404;2023-05-01T13:02:05;18.40;60.07
69387;SHT31;56575;48.942;8.404;2023-05-01T13:04:31;18.23;60.62
69387;SHT31;56575;48.942;8.404;2023-05-01T13:06:57;18.44;60.45
69387;SHT31;56575;48.942;8.404;2023-05-01T13:09:25;18.72;59.83
69387;SHT31;56575;48.942;8.404;2023-05-01T13:14:23;19.16;58.01
69387;SHT31;56575;48.942;8.404;2023-05-01T13:16:49;19.53;57.55
69387;SHT31;56575;48.942;8.404;2023-05-01T13:19:24;19.34;56.64
69387;SHT31;56575;48.942;8.404;2023-05-01T13:21:52;18.96;57.18
69387;SHT31;56575;48.942;8.404;2023-05-01T13:24:17;19.40;57.52
69387;SHT31;56575;48.942;8.404;2023-05-01T13:26:43;20.01;56.67
69387;SHT31;56575;48.942;8.404;2023-05-01T13:29:13;20.74;55.46
69387;SHT31;56575;48.942;8.404;2023-05-01T13:31:42;20.99;53.53
69387;SHT31;56575;48.942;8.404;2023-05-01T13:34:08;21.42;53.73
69387;SHT31;56575;48.942;8.404;2023-05-01T13:36:33;21.67;52.38
69387;SHT31;56575;48.942;8.404;2023-05-01T13:38:59;21.81;52.00
69387;SHT31;56575;48.942;8.404;2023-05-01T13:41:26;22.08;52.57
69387;SHT31;56575;48.942;8.404;2023-05-01T13:43:53;22.33;50.89
69387;SHT31;56575;48.942;8.404;2023-05-01T13:46:20;22.75;49.15
69387;SHT31;56575;48.942;8.404;2023-05-01T13:48:46;22.91;50.29
69387;SHT31;56575;48.942;8.404;2023-05-01T13:51:13;23.07;50.17
69387;SHT31;56575;48.942;8.404;2023-05-01T13:53:40;23.29;48.73
69387;SHT31;56575;48.942;8.404;2023-05-01T13:56:08;23.43;49.76
69387;SHT31;56575;48.942;8.404;2023-05-01T13:58:34;23.19;49.33
69387;SHT31;56575;48.942;8.404;2023-05-01T14:00:59;22.94;49.44
69387;SHT31;56575;48.942;8.404;2023-05-01T14:03:25;21.19;51.15
69387;SHT31;56575;48.942;8.404;2023-05-01T14:05:51;20.87;51.57
69387;SHT31;56575;48.942;8.404;2023-05-01T14:08:19;20.65;52.62
69387;SHT31;56575;48.942;8.404;2023-05-01T14:10:46;20.65;52.47
69387;SHT31;56575;48.942;8.404;2023-05-01T14:13:12;20.11;54.06
69387;SHT31;56575;48.942;8.404;2023-05-01T14:15:40;20.47;53.60
69387;SHT31;56575;48.942;8.404;2023-05-01T14:18:09;20.37;53.30
69387;SHT31;56575;48.942;8.404;2023-05-01T14:20:35;19.84;55.03
69387;SHT31;56575;48.942;8.404;2023-05-01T14:23:01;19.61;54.96
69387;SHT31;56575;48.942;8.404;2023-05-01T14:25:30;19.68;55.38
69387;SHT31;56575;48.942;8.404;2023-05-01T14:27:59;19.64;55.74
69387;SHT31;56575;48.942;8.404;2023-05-01T14:30:35;19.57;55.78
69387;SHT31;56575;48.942;8.404;2023-05-01T14:33:05;19.61;55.90
69387;SHT31;56575;48.942;8.404;2023-05-01T14:35:31;19.20;56.55
69387;SHT31;56575;48.942;8.404;2023-05-01T14:38:06;19.13;56.53
69387;SHT31;56575;48.942;8.404;2023-05-01T14:40:32;19.13;57.84
69387;SHT31;56575;48.942;8.404;2023-05-01T14:42:58;19.08;56.93
69387;SHT31;56575;48.942;8.404;2023-05-01T14:45:24;18.47;57.31
69387;SHT31;56575;48.942;8.404;2023-05-01T14:47:49;18.06;58.63
69387;SHT31;56575;48.942;8.404;2023-05-01T14:50:20;17.68;55.23
69387;SHT31;56575;48.942;8.404;2023-05-01T14:52:46;17.29;54.18
69387;SHT31;56575;48.942;8.404;2023-05-01T14:55:13;17.26;55.93
69387;SHT31;56575;48.942;8.404;2023-05-01T14:57:41;17.22;60.86
69387;SHT31;56575;48.942;8.404;2023-05-01T15:00:07;16.67;66.96
69387;SHT31;56575;48.942;8.404;2023-05-01T15:02:33;16.50;67.53
69387;SHT31;56575;48.942;8.404;2023-05-01T15:04:58;16.31;74.41
69387;SHT31;56575;48.942;8.404;2023-05-01T15:07:24;16.24;76.17
69387;SHT31;56575;48.942;8.404;2023-05-01T15:09:49;16.17;76.17
69387;SHT31;56575;48.942;8.404;2023-05-01T15:12:16;16.08;76.04
69387;SHT31;56575;48.942;8.404;2023-05-01T15:14:41;16.03;79.28
69387;SHT31;56575;48.942;8.404;2023-05-01T15:17:06;16.14;80.41
69387;SHT31;56575;48.942;8.404;2023-05-01T15:19:32;16.13;73.08
69387;SHT31;56575;48.942;8.404;2023-05-01T15:21:57;16.14;70.36
69387;SHT31;56575;48.942;8.404;2023-05-01T15:24:23;16.23;75.26
69387;SHT31;56575;48.942;8.404;2023-05-01T15:26:48;16.40;74.94
69387;SHT31;56575;48.942;8.404;2023-05-01T15:29:13;16.64;79.12
69387;SHT31;56575;48.942;8.404;2023-05-01T15:31:39;16.79;74.53
69387;SHT31;56575;48.942;8.404;2023-05-01T15:34:04;16.92;73.26
69387;SHT31;56575;48.942;8.404;2023-05-01T15:36:30;17.19;74.42
69387;SHT31;56575;48.942;8.404;2023-05-01T15:38:56;17.67;73.46
69387;SHT31;56575;48.942;8.404;2023-05-01T15:41:22;18.02;68.72
69387;SHT31;56575;48.942;8.404;2023-05-01T15:43:47;18.03;65.91
69387;SHT31;56575;48.942;8.404;2023-05-01T15:46:12;18.28;68.24
69387;SHT31;56575;48.942;8.404;2023-05-01T15:48:39;18.46;64.31
69387;SHT31;56575;48.942;8.404;2023-05-01T15:51:04;18.47;62.35
69387;SHT31;56575;48.942;8.404;2023-05-01T15:53:30;18.64;63.70
69387;SHT31;56575;48.942;8.404;2023-05-01T15:55:56;18.58;62.38
69387;SHT31;56575;48.942;8.404;2023-05-01T15:58:22;18.34;64.87
69387;SHT31;56575;48.942;8.404;2023-05-01T16:00:48;18.17;62.36
69387;SHT31;56575;48.942;8.404;2023-05-01T16:03:13;18.01;64.37
69387;SHT31;56575;48.942;8.404;2023-05-01T16:05:39;17.67;62.54